createdAt,value
2019-03-23T00:00:02.268Z,62.30
2019-03-23T00:01:12.004Z,62.06
2019-03-23T00:02:20.654Z,62.32
2019-03-23T00:03:29.334Z,62.55
2019-03-23T00:04:37.581Z,62.57
2019-03-23T00:05:45.605Z,62.60
2019-03-23T00:06:53.587Z,62.67
2019-03-23T00:08:01.827Z,62.74
2019-03-23T00:09:09.883Z,62.84
2019-03-23T00:10:17.754Z,62.85
2019-03-23T00:11:25.913Z,62.88
2019-03-23T00:12:34.519Z,62.93
2019-03-23T00:13:42.768Z,63.00
2019-03-23T00:14:51.351Z,63.07
2019-03-23T00:15:59.346Z,63.09
2019-03-23T00:17:07.959Z,63.02
2019-03-23T00:18:16.128Z,63.04
2019-03-23T00:19:24.145Z,63.01
2019-03-23T00:20:32.592Z,63.01
2019-03-23T00:21:40.727Z,63.07
2019-03-23T00:22:49.033Z,62.97
2019-03-23T00:23:57.227Z,62.90
2019-03-23T00:25:06.629Z,62.83
2019-03-23T00:26:14.761Z,62.66
2019-03-23T00:27:23.350Z,62.60
2019-03-23T00:28:31.775Z,62.67
2019-03-23T00:29:40.064Z,62.57
2019-03-23T00:30:48.200Z,62.45
2019-03-23T00:31:56.308Z,62.55
2019-03-23T00:33:04.302Z,62.62
2019-03-23T00:34:12.104Z,62.56
2019-03-23T00:35:20.382Z,62.50
2019-03-23T00:36:28.374Z,62.34
2019-03-23T00:37:36.497Z,62.11
2019-03-23T00:38:44.313Z,61.90
2019-03-23T00:39:52.175Z,61.79
2019-03-23T00:41:00.417Z,61.58
2019-03-23T00:42:09.034Z,61.68
2019-03-23T00:43:17.027Z,61.73
2019-03-23T00:44:25.223Z,61.84
2019-03-23T00:45:33.620Z,62.04
2019-03-23T00:46:41.823Z,62.23
2019-03-23T00:47:49.586Z,62.25
2019-03-23T00:48:57.592Z,62.10
2019-03-23T00:50:09.761Z,62.00
2019-03-23T00:51:17.890Z,62.30
2019-03-23T00:52:25.934Z,62.37
2019-03-23T00:53:34.290Z,62.53
2019-03-23T00:54:42.320Z,62.61
2019-03-23T00:55:50.620Z,62.60
2019-03-23T00:56:58.785Z,62.38
2019-03-23T00:58:07.080Z,62.42
2019-03-23T00:59:15.007Z,62.64
2019-03-23T01:00:23.068Z,62.63
2019-03-23T01:01:32.413Z,62.70
2019-03-23T01:04:00.055Z,62.69
2019-03-23T01:05:09.831Z,62.63
2019-03-23T01:06:17.926Z,62.50
2019-03-23T01:07:25.986Z,62.42
2019-03-23T01:08:33.986Z,61.97
2019-03-23T01:09:42.005Z,61.94
2019-03-23T01:10:50.042Z,61.76
2019-03-23T01:11:58.207Z,61.70
2019-03-23T01:13:06.433Z,61.69
2019-03-23T01:14:14.501Z,61.65
2019-03-23T01:15:23.073Z,61.54
2019-03-23T01:16:31.328Z,61.39
2019-03-23T01:17:39.368Z,61.59
2019-03-23T01:18:47.461Z,61.76
2019-03-23T01:19:55.085Z,61.12
2019-03-23T01:21:03.109Z,60.53
2019-03-23T01:22:10.919Z,60.15
2019-03-23T01:23:18.856Z,60.44
2019-03-23T01:24:27.162Z,60.49
2019-03-23T01:25:35.285Z,60.56
2019-03-23T01:26:43.362Z,61.12
2019-03-23T01:27:51.520Z,61.24
2019-03-23T01:28:59.515Z,60.81
2019-03-23T01:30:14.845Z,60.97
2019-03-23T01:31:22.885Z,61.04
2019-03-23T01:32:30.929Z,61.28
2019-03-23T01:33:38.976Z,61.63
2019-03-23T01:34:46.967Z,62.10
2019-03-23T01:35:54.993Z,62.50
2019-03-23T01:37:03.204Z,62.74
2019-03-23T01:38:11.360Z,62.98
2019-03-23T01:39:19.197Z,63.37
2019-03-23T01:40:27.262Z,63.75
2019-03-23T01:41:35.360Z,63.90
2019-03-23T01:42:43.115Z,64.14
2019-03-23T01:43:51.381Z,64.06
2019-03-23T01:44:59.640Z,64.01
2019-03-23T01:46:07.730Z,64.02
2019-03-23T01:47:15.802Z,63.96
2019-03-23T01:48:24.232Z,64.15
2019-03-23T01:49:32.562Z,64.05
2019-03-23T01:50:40.804Z,64.00
2019-03-23T01:51:48.945Z,63.79
2019-03-23T01:52:56.895Z,63.68
2019-03-23T01:54:04.852Z,63.55
2019-03-23T01:55:13.105Z,63.79
2019-03-23T01:56:21.433Z,63.86
2019-03-23T01:57:29.479Z,63.65
2019-03-23T01:58:37.599Z,63.38
2019-03-23T01:59:45.828Z,63.33
2019-03-23T02:00:53.690Z,63.15
2019-03-23T02:02:01.736Z,62.62
2019-03-23T02:03:09.800Z,62.42
2019-03-23T02:04:17.740Z,62.06
2019-03-23T02:05:25.733Z,61.96
2019-03-23T02:06:33.710Z,61.86
2019-03-23T02:07:41.909Z,61.61
2019-03-23T02:08:49.821Z,61.72
2019-03-23T02:09:57.715Z,61.83
2019-03-23T02:11:05.599Z,62.90
2019-03-23T02:12:13.887Z,62.92
2019-03-23T02:13:21.927Z,62.41
2019-03-23T02:14:29.978Z,62.40
2019-03-23T02:15:38.298Z,62.67
2019-03-23T02:16:46.428Z,62.98
2019-03-23T02:17:54.676Z,63.16
2019-03-23T02:19:02.514Z,63.36
2019-03-23T02:20:15.732Z,63.29
2019-03-23T02:21:23.858Z,63.46
2019-03-23T02:22:31.978Z,63.44
2019-03-23T02:23:40.437Z,63.60
2019-03-23T02:24:48.279Z,64.03
2019-03-23T02:25:56.111Z,64.22
2019-03-23T02:27:03.987Z,64.51
2019-03-23T02:28:11.900Z,64.69
2019-03-23T02:29:19.958Z,65.30
2019-03-23T02:30:28.049Z,65.38
2019-03-23T02:31:36.040Z,64.88
2019-03-23T02:32:44.335Z,64.91
2019-03-23T02:33:52.334Z,65.40
2019-03-23T02:35:00.483Z,65.17
2019-03-23T02:36:08.632Z,64.66
2019-03-23T02:37:27.157Z,63.94
2019-03-23T02:38:26.052Z,63.77
2019-03-23T02:39:33.920Z,63.50
2019-03-23T02:40:43.475Z,63.04
2019-03-23T02:41:52.900Z,62.75
2019-03-23T02:43:00.903Z,62.69
2019-03-23T02:44:08.996Z,62.54
2019-03-23T02:45:17.139Z,62.80
2019-03-23T02:46:25.026Z,62.43
2019-03-23T02:47:33.181Z,62.01
2019-03-23T02:48:41.329Z,62.12
2019-03-23T02:49:49.883Z,61.95
2019-03-23T02:50:57.778Z,61.90
2019-03-23T02:52:05.898Z,61.72
2019-03-23T02:53:13.768Z,61.71
2019-03-23T02:54:21.624Z,61.73
2019-03-23T02:55:29.649Z,61.59
2019-03-23T02:56:37.570Z,61.88
2019-03-23T02:57:45.742Z,61.80
2019-03-23T02:58:53.663Z,61.78
2019-03-23T03:00:01.839Z,61.83
2019-03-23T03:01:10.035Z,61.89
2019-03-23T03:02:17.822Z,61.84
2019-03-23T03:03:25.836Z,61.62
2019-03-23T03:04:33.918Z,61.79
2019-03-23T03:05:42.219Z,62.01
2019-03-23T03:06:50.418Z,62.61
2019-03-23T03:07:58.513Z,63.10
2019-03-23T03:09:07.697Z,63.87
2019-03-23T03:10:41.648Z,64.17
2019-03-23T03:11:49.736Z,64.45
2019-03-23T03:12:57.836Z,64.20
2019-03-23T03:14:06.339Z,64.54
2019-03-23T03:15:15.055Z,64.87
2019-03-23T03:16:23.363Z,65.40
2019-03-23T03:17:31.350Z,65.22
2019-03-23T03:18:39.553Z,65.53
2019-03-23T03:19:47.463Z,65.96
2019-03-23T03:20:55.532Z,66.12
2019-03-23T03:22:03.838Z,66.39
2019-03-23T03:23:12.121Z,66.46
2019-03-23T03:24:20.284Z,66.74
2019-03-23T03:25:28.439Z,66.34
2019-03-23T03:26:36.439Z,66.39
2019-03-23T03:27:44.337Z,66.55
2019-03-23T03:28:52.624Z,66.42
2019-03-23T03:30:00.669Z,66.15
2019-03-23T03:31:08.664Z,66.02
2019-03-23T03:32:16.737Z,65.97
2019-03-23T03:33:24.764Z,66.05
2019-03-23T03:34:33.005Z,66.36
2019-03-23T03:35:41.047Z,66.73
2019-03-23T03:36:49.292Z,66.92
2019-03-23T03:37:57.421Z,66.76
2019-03-23T03:39:08.088Z,66.48
2019-03-23T03:40:16.162Z,66.74
2019-03-23T03:41:24.439Z,66.68
2019-03-23T03:42:32.664Z,66.58
2019-03-23T03:43:40.684Z,66.80
2019-03-23T03:44:49.076Z,66.83
2019-03-23T03:45:57.117Z,66.44
2019-03-23T03:47:05.332Z,66.56
2019-03-23T03:48:13.363Z,66.37
2019-03-23T03:49:21.120Z,66.24
2019-03-23T03:50:29.226Z,66.73
2019-03-23T03:51:37.206Z,66.88
2019-03-23T03:52:45.459Z,66.64
2019-03-23T03:53:53.622Z,66.84
2019-03-23T03:55:01.706Z,66.56
2019-03-23T03:56:09.531Z,66.82
2019-03-23T03:57:17.488Z,66.75
2019-03-23T03:58:25.380Z,67.02
2019-03-23T03:59:33.414Z,66.75
2019-03-23T04:00:41.571Z,66.99
2019-03-23T04:01:49.567Z,67.12
2019-03-23T04:02:57.564Z,67.12
2019-03-23T04:04:05.386Z,67.31
2019-03-23T04:05:13.568Z,67.25
2019-03-23T04:06:21.343Z,67.38
2019-03-23T04:07:29.545Z,67.86
2019-03-23T04:08:37.317Z,68.30
2019-03-23T04:09:45.443Z,68.30
2019-03-23T04:10:53.427Z,67.93
2019-03-23T04:12:01.855Z,67.83
2019-03-23T04:13:10.012Z,67.65
2019-03-23T04:14:18.368Z,67.53
2019-03-23T04:15:26.868Z,67.20
2019-03-23T04:16:35.068Z,67.30
2019-03-23T04:17:42.973Z,67.49
2019-03-23T04:18:51.067Z,67.39
2019-03-23T04:19:59.556Z,67.08
2019-03-23T04:21:07.459Z,66.78
2019-03-23T04:22:15.352Z,66.75
2019-03-23T04:23:24.140Z,66.69
2019-03-23T04:24:32.208Z,66.54
2019-03-23T04:25:40.478Z,66.54
2019-03-23T04:26:48.396Z,66.54
2019-03-23T04:27:56.352Z,66.83
2019-03-23T04:29:04.430Z,66.84
2019-03-23T04:30:13.560Z,66.92
2019-03-23T04:31:21.496Z,66.99
2019-03-23T04:32:29.601Z,66.98
2019-03-23T04:33:37.638Z,67.08
2019-03-23T04:34:45.654Z,67.38
2019-03-23T04:35:53.941Z,67.37
2019-03-23T04:37:01.870Z,67.50
2019-03-23T04:38:09.733Z,67.50
2019-03-23T04:39:18.013Z,67.31
2019-03-23T04:40:26.068Z,67.55
2019-03-23T04:41:34.428Z,67.37
2019-03-23T04:42:42.919Z,67.29
2019-03-23T04:43:51.391Z,67.32
2019-03-23T04:44:59.641Z,67.49
2019-03-23T04:46:07.727Z,67.59
2019-03-23T04:47:15.827Z,67.90
2019-03-23T04:48:23.753Z,68.12
2019-03-23T04:49:31.898Z,68.15
2019-03-23T04:50:40.224Z,68.36
2019-03-23T04:51:48.528Z,68.73
2019-03-23T04:52:56.712Z,68.45
2019-03-23T04:54:04.834Z,68.25
2019-03-23T04:55:15.114Z,68.08
2019-03-23T04:56:22.981Z,68.08
2019-03-23T04:57:31.109Z,68.07
2019-03-23T04:58:39.671Z,68.04
2019-03-23T04:59:47.614Z,67.81
2019-03-23T05:00:55.972Z,67.92
2019-03-23T05:02:04.318Z,68.08
2019-03-23T05:03:12.206Z,68.41
2019-03-23T05:04:20.179Z,68.23
2019-03-23T05:05:28.351Z,68.57
2019-03-23T05:06:36.545Z,68.54
2019-03-23T05:07:44.640Z,68.80
2019-03-23T05:08:53.344Z,69.07
2019-03-23T05:10:01.307Z,68.71
2019-03-23T05:11:09.339Z,68.94
2019-03-23T05:12:17.433Z,68.99
2019-03-23T05:13:25.736Z,69.02
2019-03-23T05:14:33.581Z,69.20
2019-03-23T05:15:41.523Z,68.99
2019-03-23T05:16:49.729Z,68.93
2019-03-23T05:17:57.621Z,69.01
2019-03-23T05:19:05.814Z,69.09
2019-03-23T05:20:30.299Z,68.74
2019-03-23T05:21:38.498Z,68.74
2019-03-23T05:22:46.584Z,68.64
2019-03-23T05:23:54.796Z,68.72
2019-03-23T05:25:02.884Z,68.85
2019-03-23T05:26:10.892Z,68.83
2019-03-23T05:27:18.670Z,68.85
2019-03-23T05:28:26.672Z,69.04
2019-03-23T05:29:35.170Z,68.91
2019-03-23T05:30:43.368Z,69.10
2019-03-23T05:31:51.524Z,69.05
2019-03-23T05:32:59.362Z,69.14
2019-03-23T05:34:07.365Z,69.35
2019-03-23T05:35:15.255Z,69.40
2019-03-23T05:36:23.221Z,69.49
2019-03-23T05:37:31.239Z,69.43
2019-03-23T05:38:44.408Z,69.54
2019-03-23T05:39:48.946Z,69.35
2019-03-23T05:40:57.059Z,69.02
2019-03-23T05:42:05.188Z,68.84
2019-03-23T05:43:13.297Z,68.58
2019-03-23T05:44:21.092Z,68.51
2019-03-23T05:45:29.242Z,68.56
2019-03-23T05:46:37.173Z,68.55
2019-03-23T05:47:45.281Z,68.44
2019-03-23T05:48:53.539Z,68.27
2019-03-23T05:50:01.435Z,68.53
2019-03-23T05:51:09.511Z,68.58
2019-03-23T05:52:17.519Z,68.34
2019-03-23T05:53:25.695Z,68.56
2019-03-23T05:54:33.725Z,68.85
2019-03-23T05:55:41.763Z,68.66
2019-03-23T05:56:49.883Z,68.47
2019-03-23T05:57:58.134Z,68.36
2019-03-23T05:59:06.078Z,68.49
2019-03-23T06:00:16.128Z,68.23
2019-03-23T06:01:24.026Z,68.36
2019-03-23T06:02:32.140Z,68.26
2019-03-23T06:03:40.158Z,68.24
2019-03-23T06:04:47.940Z,68.17
2019-03-23T06:05:56.326Z,68.19
2019-03-23T06:07:04.704Z,67.84
2019-03-23T06:08:12.668Z,68.43
2019-03-23T06:09:20.835Z,68.75
2019-03-23T06:10:28.808Z,68.35
2019-03-23T06:11:36.822Z,68.15
2019-03-23T06:12:44.953Z,68.35
2019-03-23T06:13:53.194Z,68.21
2019-03-23T06:15:01.482Z,68.38
2019-03-23T06:16:09.591Z,68.47
2019-03-23T06:17:17.530Z,68.18
2019-03-23T06:18:25.892Z,68.06
2019-03-23T06:19:33.803Z,67.84
2019-03-23T06:20:43.016Z,67.96
2019-03-23T06:21:51.205Z,67.92
2019-03-23T06:22:59.173Z,68.16
2019-03-23T06:24:07.443Z,68.21
2019-03-23T06:25:15.612Z,68.16
2019-03-23T06:26:23.819Z,68.06
2019-03-23T06:27:32.114Z,67.96
2019-03-23T06:28:40.199Z,67.79
2019-03-23T06:29:48.603Z,67.71
2019-03-23T06:30:56.565Z,67.80
2019-03-23T06:32:04.620Z,68.10
2019-03-23T06:33:12.780Z,67.98
2019-03-23T06:34:21.124Z,68.00
2019-03-23T06:35:29.301Z,67.78
2019-03-23T06:36:37.620Z,67.69
2019-03-23T06:37:45.758Z,67.78
2019-03-23T06:38:54.009Z,67.89
2019-03-23T06:40:02.344Z,67.79
2019-03-23T06:41:10.418Z,67.83
2019-03-23T06:42:18.775Z,67.95
2019-03-23T06:43:26.817Z,67.85
2019-03-23T06:44:34.889Z,68.09
2019-03-23T06:45:42.991Z,68.12
2019-03-23T06:46:51.285Z,68.14
2019-03-23T06:47:59.409Z,67.94
2019-03-23T06:49:07.702Z,67.98
2019-03-23T06:50:16.366Z,67.84
2019-03-23T06:51:24.784Z,68.05
2019-03-23T06:52:32.807Z,68.12
2019-03-23T06:53:41.304Z,68.27
2019-03-23T06:54:49.526Z,68.11
2019-03-23T06:55:57.835Z,68.28
2019-03-23T06:57:06.294Z,68.31
2019-03-23T06:58:14.447Z,68.08
2019-03-23T06:59:22.719Z,68.26
2019-03-23T07:00:30.902Z,68.22
2019-03-23T07:01:39.076Z,68.11
2019-03-23T07:02:47.578Z,68.22
2019-03-23T07:03:56.124Z,68.22
2019-03-23T07:05:05.825Z,68.06
2019-03-23T07:06:13.983Z,67.76
2019-03-23T07:07:23.286Z,67.71
2019-03-23T07:08:32.352Z,67.65
2019-03-23T07:09:40.835Z,67.41
2019-03-23T07:10:48.978Z,67.47
2019-03-23T07:11:56.964Z,67.48
2019-03-23T07:13:05.274Z,67.42
2019-03-23T07:14:13.629Z,67.47
2019-03-23T07:15:22.004Z,67.40
2019-03-23T07:16:30.003Z,67.41
2019-03-23T07:17:38.319Z,67.23
2019-03-23T07:18:46.399Z,67.23
2019-03-23T07:19:54.456Z,67.46
2019-03-23T07:21:02.803Z,67.50
2019-03-23T07:22:10.844Z,67.58
2019-03-23T07:23:19.102Z,67.71
2019-03-23T07:24:27.026Z,67.75
2019-03-23T07:25:35.080Z,67.68
2019-03-23T07:26:43.202Z,67.59
2019-03-23T07:27:51.184Z,67.43
2019-03-23T07:28:59.989Z,67.39
2019-03-23T07:30:18.962Z,67.30
2019-03-23T07:31:26.985Z,67.29
2019-03-23T07:32:34.875Z,67.18
2019-03-23T07:33:42.881Z,67.22
2019-03-23T07:34:51.017Z,67.16
2019-03-23T07:35:59.071Z,67.08
2019-03-23T07:37:07.219Z,67.03
2019-03-23T07:38:15.211Z,66.94
2019-03-23T07:39:28.164Z,67.07
2019-03-23T07:40:32.982Z,67.29
2019-03-23T07:41:41.021Z,67.26
2019-03-23T07:42:49.090Z,66.91
2019-03-23T07:43:56.930Z,66.97
2019-03-23T07:45:11.018Z,67.04
2019-03-23T07:46:18.858Z,66.75
2019-03-23T07:47:26.749Z,66.56
2019-03-23T07:48:34.734Z,66.54
2019-03-23T07:49:42.697Z,66.68
2019-03-23T07:50:50.761Z,66.92
2019-03-23T07:51:58.703Z,67.08
2019-03-23T07:53:06.785Z,66.91
2019-03-23T07:54:14.679Z,66.46
2019-03-23T07:55:22.512Z,66.60
2019-03-23T07:56:30.733Z,66.47
2019-03-23T07:57:39.233Z,66.46
2019-03-23T07:58:47.570Z,66.53
2019-03-23T07:59:55.626Z,66.75
2019-03-23T08:01:04.047Z,66.58
2019-03-23T08:02:12.190Z,66.67
2019-03-23T08:03:20.326Z,66.40
2019-03-23T08:04:28.187Z,66.24
2019-03-23T08:05:36.518Z,66.15
2019-03-23T08:06:44.723Z,65.79
2019-03-23T08:07:52.805Z,65.84
2019-03-23T08:09:01.102Z,65.92
2019-03-23T08:10:10.389Z,65.58
2019-03-23T08:11:18.431Z,65.72
2019-03-23T08:12:26.411Z,65.92
2019-03-23T08:13:34.710Z,65.75
2019-03-23T08:14:42.598Z,65.87
2019-03-23T08:15:50.514Z,65.83
2019-03-23T08:16:58.802Z,65.90
2019-03-23T08:18:07.117Z,66.12
2019-03-23T08:19:15.499Z,65.84
2019-03-23T08:20:23.368Z,65.55
2019-03-23T08:21:31.202Z,65.73
2019-03-23T08:22:39.049Z,65.94
2019-03-23T08:23:47.035Z,65.61
2019-03-23T08:24:55.189Z,65.20
2019-03-23T08:26:03.295Z,65.14
2019-03-23T08:27:11.561Z,65.18
2019-03-23T08:28:19.736Z,65.33
2019-03-23T08:29:27.733Z,64.98
2019-03-23T08:30:35.671Z,64.92
2019-03-23T08:31:43.367Z,64.77
2019-03-23T08:32:51.624Z,64.68
2019-03-23T08:33:59.692Z,64.69
2019-03-23T08:35:07.955Z,64.72
2019-03-23T08:36:16.050Z,64.67
2019-03-23T08:37:24.051Z,64.75
2019-03-23T08:38:32.046Z,64.56
2019-03-23T08:39:48.085Z,64.75
2019-03-23T08:40:50.023Z,65.06
2019-03-23T08:41:58.266Z,65.00
2019-03-23T08:43:06.917Z,65.35
2019-03-23T08:44:14.925Z,65.66
2019-03-23T08:45:22.924Z,65.44
2019-03-23T08:46:30.938Z,65.02
2019-03-23T08:47:39.253Z,64.62
2019-03-23T08:48:47.285Z,64.19
2019-03-23T08:49:59.686Z,64.44
2019-03-23T08:51:08.314Z,64.39
2019-03-23T08:52:16.749Z,64.83
2019-03-23T08:53:24.978Z,64.60
2019-03-23T08:54:32.874Z,64.52
2019-03-23T08:55:40.777Z,64.45
2019-03-23T08:56:48.665Z,63.99
2019-03-23T08:57:56.747Z,64.26
2019-03-23T08:59:04.747Z,64.51
2019-03-23T09:00:13.354Z,64.12
2019-03-23T09:01:21.688Z,64.46
2019-03-23T09:02:29.675Z,64.27
2019-03-23T09:03:37.999Z,63.48
2019-03-23T09:04:46.083Z,63.36
2019-03-23T09:05:54.757Z,63.04
2019-03-23T09:07:02.764Z,62.78
2019-03-23T09:08:11.156Z,62.81
2019-03-23T09:09:19.248Z,63.17
2019-03-23T09:10:27.515Z,63.58
2019-03-23T09:11:35.502Z,63.95
2019-03-23T09:12:43.490Z,63.59
2019-03-23T09:13:51.666Z,63.50
2019-03-23T09:14:59.840Z,63.11
2019-03-23T09:16:08.065Z,62.68
2019-03-23T09:17:16.440Z,62.86
2019-03-23T09:18:24.539Z,62.83
2019-03-23T09:19:32.442Z,62.85
2019-03-23T09:20:40.533Z,62.87
2019-03-23T09:21:48.678Z,62.70
2019-03-23T09:22:56.808Z,62.33
2019-03-23T09:24:04.743Z,62.13
2019-03-23T09:25:13.665Z,61.92
2019-03-23T09:26:21.810Z,61.83
2019-03-23T09:27:30.156Z,61.96
2019-03-23T09:28:38.030Z,62.33
2019-03-23T09:29:46.398Z,62.32
2019-03-23T09:30:54.435Z,62.23
2019-03-23T09:32:02.620Z,62.13
2019-03-23T09:33:10.941Z,62.15
2019-03-23T09:34:18.923Z,62.31
2019-03-23T09:35:27.022Z,61.75
2019-03-23T09:36:35.124Z,61.69
2019-03-23T09:37:43.113Z,61.69
2019-03-23T09:38:51.034Z,61.78
2019-03-23T09:40:10.027Z,61.85
2019-03-23T09:41:08.880Z,61.77
2019-03-23T09:42:17.152Z,61.64
2019-03-23T09:43:25.251Z,61.50
2019-03-23T09:44:33.392Z,61.26
2019-03-23T09:45:41.337Z,61.29
2019-03-23T09:46:49.326Z,61.56
2019-03-23T09:47:57.597Z,61.48
2019-03-23T09:49:05.833Z,61.15
2019-03-23T09:50:14.764Z,61.13
2019-03-23T09:51:22.727Z,61.14
2019-03-23T09:52:30.605Z,60.96
2019-03-23T09:53:38.635Z,60.63
2019-03-23T09:54:48.052Z,60.53
2019-03-23T09:55:55.995Z,59.99
2019-03-23T09:57:03.894Z,60.28
2019-03-23T09:58:12.032Z,60.98
2019-03-23T09:59:19.932Z,60.54
2019-03-23T10:00:27.972Z,60.20
2019-03-23T10:01:36.098Z,60.14
2019-03-23T10:02:44.111Z,59.32
2019-03-23T10:03:52.009Z,59.23
2019-03-23T10:04:59.995Z,59.56
2019-03-23T10:06:08.004Z,59.84
2019-03-23T10:07:17.160Z,59.47
2019-03-23T10:08:25.205Z,59.25
2019-03-23T10:09:33.407Z,58.62
2019-03-23T10:10:41.512Z,58.56
2019-03-23T10:11:49.560Z,58.57
2019-03-23T10:12:57.912Z,58.36
2019-03-23T10:14:06.115Z,58.02
2019-03-23T10:15:14.910Z,57.92
2019-03-23T10:16:22.762Z,57.80
2019-03-23T10:17:30.806Z,57.14
2019-03-23T10:18:39.091Z,57.01
2019-03-23T10:19:47.184Z,56.96
2019-03-23T10:20:55.005Z,56.20
2019-03-23T10:22:03.089Z,56.80
2019-03-23T10:23:11.495Z,56.79
2019-03-23T10:24:19.798Z,56.27
2019-03-23T10:25:27.788Z,55.91
2019-03-23T10:26:35.781Z,55.88
2019-03-23T10:27:44.028Z,55.22
2019-03-23T10:28:52.086Z,55.68
2019-03-23T10:30:00.174Z,55.11
2019-03-23T10:31:08.822Z,54.25
2019-03-23T10:32:17.202Z,54.11
2019-03-23T10:33:25.182Z,53.56
2019-03-23T10:34:32.928Z,53.15
2019-03-23T10:35:41.094Z,52.15
2019-03-23T10:36:49.369Z,51.04
2019-03-23T10:37:57.305Z,50.85
2019-03-23T10:39:06.383Z,50.80
2019-03-23T10:40:14.772Z,50.63
2019-03-23T10:41:22.746Z,50.43
2019-03-23T10:42:30.960Z,49.70
2019-03-23T10:43:39.127Z,48.79
2019-03-23T10:44:47.174Z,48.08
2019-03-23T10:45:55.418Z,48.01
2019-03-23T10:47:03.679Z,47.05
2019-03-23T10:48:12.258Z,46.90
2019-03-23T10:49:20.802Z,46.36
2019-03-23T10:50:28.844Z,46.24
2019-03-23T10:51:36.976Z,45.57
2019-03-23T10:52:44.984Z,45.30
2019-03-23T10:53:53.062Z,45.42
2019-03-23T10:55:01.073Z,44.37
2019-03-23T10:56:09.070Z,44.19
2019-03-23T10:57:17.765Z,42.99
2019-03-23T10:58:25.775Z,43.12
2019-03-23T10:59:33.767Z,42.59
2019-03-23T11:00:41.965Z,41.97
2019-03-23T11:01:50.187Z,41.95
2019-03-23T11:02:58.383Z,41.63
2019-03-23T11:04:06.360Z,41.52
2019-03-23T11:05:14.834Z,40.45
2019-03-23T11:06:22.962Z,41.17
2019-03-23T11:07:31.264Z,40.33
2019-03-23T11:08:39.472Z,40.06
2019-03-23T11:09:47.904Z,39.93
2019-03-23T11:10:55.864Z,38.93
2019-03-23T11:12:04.027Z,39.41
2019-03-23T11:13:11.888Z,39.00
2019-03-23T11:14:20.362Z,38.92
2019-03-23T11:15:28.549Z,38.38
2019-03-23T11:16:36.649Z,37.70
2019-03-23T11:17:44.787Z,37.90
2019-03-23T11:18:52.788Z,37.75
2019-03-23T11:20:00.860Z,37.56
2019-03-23T11:21:09.145Z,37.70
2019-03-23T11:22:17.036Z,37.59
2019-03-23T11:23:25.140Z,37.15
2019-03-23T11:24:34.259Z,36.72
2019-03-23T11:25:42.334Z,36.07
2019-03-23T11:26:50.763Z,35.75
2019-03-23T11:27:58.679Z,35.36
2019-03-23T11:29:08.471Z,34.59
2019-03-23T11:30:16.659Z,35.47
2019-03-23T11:31:24.643Z,34.51
2019-03-23T11:32:32.551Z,35.04
2019-03-23T11:33:40.871Z,34.72
2019-03-23T11:34:49.241Z,33.75
2019-03-23T11:35:58.136Z,33.25
2019-03-23T11:37:06.334Z,33.91
2019-03-23T11:38:14.696Z,33.86
2019-03-23T11:39:23.307Z,33.57
2019-03-23T11:40:31.378Z,33.32
2019-03-23T11:41:39.842Z,33.50
2019-03-23T11:42:50.300Z,33.28
2019-03-23T11:43:57.872Z,32.59
2019-03-23T11:45:08.882Z,32.89
2019-03-23T11:46:17.150Z,32.75
2019-03-23T11:47:25.351Z,32.79
2019-03-23T11:48:33.427Z,32.20
2019-03-23T11:49:41.422Z,32.10
2019-03-23T11:50:49.314Z,32.16
2019-03-23T11:51:57.614Z,32.05
2019-03-23T11:53:05.905Z,31.68
2019-03-23T11:54:13.872Z,31.80
2019-03-23T11:55:22.609Z,31.36
2019-03-23T11:56:30.808Z,30.82
2019-03-23T11:57:38.725Z,31.19
2019-03-23T11:58:46.767Z,30.45
2019-03-23T11:59:54.593Z,30.30
2019-03-23T12:01:02.730Z,30.94
2019-03-23T12:02:10.676Z,30.96
2019-03-23T12:03:18.924Z,30.25
2019-03-23T12:04:27.274Z,30.40
2019-03-23T12:05:35.267Z,29.92
2019-03-23T12:06:43.368Z,29.68
2019-03-23T12:07:51.466Z,29.03
2019-03-23T12:08:59.579Z,29.13
2019-03-23T12:10:11.329Z,28.48
2019-03-23T12:11:19.427Z,29.00
2019-03-23T12:12:27.842Z,29.24
2019-03-23T12:13:35.929Z,28.94
2019-03-23T12:14:43.833Z,29.11
2019-03-23T12:15:52.043Z,28.81
2019-03-23T12:17:00.059Z,28.56
2019-03-23T12:18:08.186Z,28.16
2019-03-23T12:19:16.628Z,28.35
2019-03-23T12:20:24.824Z,28.18
2019-03-23T12:21:32.832Z,28.18
2019-03-23T12:22:40.777Z,28.00
2019-03-23T12:23:48.926Z,27.29
2019-03-23T12:24:56.920Z,27.78
2019-03-23T12:26:04.895Z,27.35
2019-03-23T12:27:13.183Z,27.19
2019-03-23T12:28:21.317Z,27.17
2019-03-23T12:29:29.595Z,26.94
2019-03-23T12:30:37.824Z,27.00
2019-03-23T12:31:45.909Z,26.84
2019-03-23T12:32:53.884Z,26.40
2019-03-23T12:34:01.765Z,26.82
2019-03-23T12:35:10.121Z,26.52
2019-03-23T12:36:18.008Z,26.24
2019-03-23T12:37:26.033Z,26.41
2019-03-23T12:38:33.829Z,26.44
2019-03-23T12:39:41.951Z,26.16
2019-03-23T12:40:50.067Z,26.01
2019-03-23T12:41:58.363Z,26.12
2019-03-23T12:43:06.467Z,25.49
2019-03-23T12:44:14.863Z,25.15
2019-03-23T12:45:22.939Z,25.66
2019-03-23T12:46:31.054Z,25.51
2019-03-23T12:47:39.205Z,25.87
2019-03-23T12:48:47.376Z,25.66
2019-03-23T12:49:55.676Z,25.21
2019-03-23T12:51:03.876Z,25.25
2019-03-23T12:52:11.877Z,25.28
2019-03-23T12:53:20.260Z,25.37
2019-03-23T12:54:28.610Z,25.24
2019-03-23T12:55:36.577Z,25.27
2019-03-23T12:56:44.699Z,25.26
2019-03-23T12:57:52.805Z,24.46
2019-03-23T12:59:00.717Z,25.30
2019-03-23T13:00:17.869Z,24.91
2019-03-23T13:01:25.951Z,24.88
2019-03-23T13:02:34.879Z,24.89
2019-03-23T13:03:42.969Z,24.77
2019-03-23T13:04:51.377Z,24.71
2019-03-23T13:05:59.431Z,24.10
2019-03-23T13:07:07.419Z,24.31
2019-03-23T13:08:15.574Z,24.40
2019-03-23T13:09:23.614Z,24.50
2019-03-23T13:10:32.168Z,23.95
2019-03-23T13:11:40.366Z,24.24
2019-03-23T13:12:48.544Z,24.23
2019-03-23T13:13:56.562Z,24.18
2019-03-23T13:15:09.778Z,23.89
2019-03-23T13:16:17.873Z,24.00
2019-03-23T13:17:25.917Z,24.11
2019-03-23T13:18:34.172Z,24.08
2019-03-23T13:19:42.455Z,23.75
2019-03-23T13:20:50.678Z,23.82
2019-03-23T13:21:59.031Z,23.95
2019-03-23T13:23:07.106Z,23.82
2019-03-23T13:24:15.178Z,23.98
2019-03-23T13:25:23.490Z,23.87
2019-03-23T13:26:32.036Z,23.58
2019-03-23T13:27:42.133Z,23.81
2019-03-23T13:28:50.267Z,23.70
2019-03-23T13:29:58.408Z,23.52
2019-03-23T13:31:06.718Z,23.58
2019-03-23T13:32:14.819Z,23.28
2019-03-23T13:33:23.114Z,23.55
2019-03-23T13:34:31.519Z,23.55
2019-03-23T13:35:39.618Z,23.14
2019-03-23T13:36:47.713Z,23.51
2019-03-23T13:37:55.878Z,23.32
2019-03-23T13:39:04.835Z,23.49
2019-03-23T13:40:14.256Z,23.33
2019-03-23T13:41:22.268Z,23.00
2019-03-23T13:42:31.312Z,23.16
2019-03-23T13:43:39.672Z,23.12
2019-03-23T13:44:47.785Z,23.12
2019-03-23T13:45:56.170Z,23.11
2019-03-23T13:47:04.386Z,23.17
2019-03-23T13:48:12.574Z,23.04
2019-03-23T13:49:20.570Z,22.64
2019-03-23T13:50:32.720Z,22.94
2019-03-23T13:51:40.978Z,22.80
2019-03-23T13:52:49.160Z,22.85
2019-03-23T13:53:57.306Z,23.08
2019-03-23T13:55:06.947Z,22.91
2019-03-23T13:56:15.289Z,22.86
2019-03-23T13:57:23.693Z,22.92
2019-03-23T13:58:32.204Z,22.86
2019-03-23T13:59:40.192Z,22.91
2019-03-23T14:00:48.501Z,22.75
2019-03-23T14:01:56.666Z,22.75
2019-03-23T14:03:04.758Z,22.83
2019-03-23T14:04:12.990Z,22.88
2019-03-23T14:05:21.097Z,22.88
2019-03-23T14:06:29.289Z,22.66
2019-03-23T14:07:37.586Z,22.70
2019-03-23T14:08:45.707Z,22.63
2019-03-23T14:09:53.988Z,22.68
2019-03-23T14:11:02.151Z,22.83
2019-03-23T14:12:10.378Z,22.75
2019-03-23T14:13:18.634Z,22.55
2019-03-23T14:14:26.955Z,22.76
2019-03-23T14:15:35.423Z,22.81
2019-03-23T14:16:43.596Z,22.63
2019-03-23T14:17:51.685Z,22.68
2019-03-23T14:18:59.568Z,22.52
2019-03-23T14:20:08.563Z,22.50
2019-03-23T14:21:16.656Z,22.72
2019-03-23T14:22:24.813Z,22.76
2019-03-23T14:23:32.883Z,22.70
2019-03-23T14:24:41.180Z,22.66
2019-03-23T14:25:49.404Z,22.66
2019-03-23T14:26:57.507Z,22.67
2019-03-23T14:28:06.509Z,22.78
2019-03-23T14:29:15.521Z,22.53
2019-03-23T14:30:23.471Z,22.55
2019-03-23T14:31:31.476Z,22.52
2019-03-23T14:32:39.365Z,22.74
2019-03-23T14:33:47.282Z,22.75
2019-03-23T14:34:55.301Z,22.78
2019-03-23T14:36:03.392Z,22.78
2019-03-23T14:37:11.462Z,22.81
2019-03-23T14:38:19.642Z,22.80
2019-03-23T14:39:27.964Z,22.89
2019-03-23T14:40:35.997Z,23.03